sensor_id;sensor_type;location;lat;lon;timestamp;temperature;humidity
8662;DHT22;29684;47.722;9.388;2024-03-23T00:55:04;10.30;99.90
8662;DHT22;29684;47.722;9.388;2024-03-23T00:57:48;9.70;99.90
8662;DHT22;29684;47.722;9.388;2024-03-23T01:00:32;9.50;99.90
8662;DHT22;29684;47.722;9.388;2024-03-23T01:03:16;9.60;99.90
8662;DHT22;29684;47.722;9.388;2024-03-23T01:06:01;9.50;99.90
8662;DHT22;29684;47.722;9.388;2024-03-23T01:08:45;9.40;99.90
8662;DHT22;29684;47.722;9.388;2024-03-23T01:11:29;9.30;99.90
8662;DHT22;29684;47.722;9.388;2024-03-23T01:14:13;9.40;99.90
8662;DHT22;29684;47.722;9.388;2024-03-23T01:16:57;9.30;99.90
8662;DHT22;29684;47.722;9.388;2024-03-23T01:19:41;9.20;99.90
8662;DHT22;29684;47.722;9.388;2024-03-23T01:22:26;9.40;99.90
8662;DHT22;29684;47.722;9.388;2024-03-23T01:25:10;9.20;99.90
8662;DHT22;29684;47.722;9.388;2024-03-23T01:27:55;9.10;99.90
8662;DHT22;29684;47.722;9.388;2024-03-23T01:30:39;9.10;99.90
8662;DHT22;29684;47.722;9.388;2024-03-23T01:33:23;10.20;99.90
8662;DHT22;29684;47.722;9.388;2024-03-23T01:36:07;8.90;99.90
8662;DHT22;29684;47.722;9.388;2024-03-23T01:38:51;9.40;99.90
8662;DHT22;29684;47.722;9.388;2024-03-23T01:41:36;8.80;99.90
8662;DHT22;29684;47.722;9.388;2024-03-23T01:44:22;9.60;99.90
8662;DHT22;29684;47.722;9.388;2024-03-23T01:47:07;8.80;99.90
8662;DHT22;29684;47.722;9.388;2024-03-23T01:49:51;8.80;99.90
8662;DHT22;29684;47.722;9.388;2024-03-23T01:52:35;9.40;99.90
8662;DHT22;29684;47.722;9.388;2024-03-23T01:55:20;9.60;99.90
8662;DHT22;29684;47.722;9.388;2024-03-23T01:58:04;8.80;99.90
8662;DHT22;29684;47.722;9.388;2024-03-23T02:00:48;8.90;99.90
8662;DHT22;29684;47.722;9.388;2024-03-23T02:03:32;9.80;99.90
8662;DHT22;29684;47.722;9.388;2024-03-23T02:06:17;9.20;99.90
8662;DHT22;29684;47.722;9.388;2024-03-23T02:09:01;9.00;99.90
8662;DHT22;29684;47.722;9.388;2024-03-23T02:11:47;9.00;99.90
8662;DHT22;29684;47.722;9.388;2024-03-23T02:14:31;9.00;99.90
8662;DHT22;29684;47.722;9.388;2024-03-23T02:17:16;8.90;99.90
8662;DHT22;29684;47.722;9.388;2024-03-23T02:20:02;9.60;99.90
8662;DHT22;29684;47.722;9.388;2024-03-23T02:22:51;8.90;99.90
8662;DHT22;29684;47.722;9.388;2024-03-23T02:25:35;10.70;99.90
8662;DHT22;29684;47.722;9.388;2024-03-23T02:28:20;8.90;99.90
8662;DHT22;29684;47.722;9.388;2024-03-23T02:31:06;9.00;99.90
8662;DHT22;29684;47.722;9.388;2024-03-23T02:33:51;9.00;99.90
8662;DHT22;29684;47.722;9.388;2024-03-23T02:36:35;9.00;99.90
8662;DHT22;29684;47.722;9.388;2024-03-23T02:39:19;9.00;99.90
8662;DHT22;29684;47.722;9.388;2024-03-23T02:42:03;8.90;99.90
8662;DHT22;29684;47.722;9.388;2024-03-23T02:44:47;8.90;99.90
8662;DHT22;29684;47.722;9.388;2024-03-23T02:47:32;10.30;99.90
8662;DHT22;29684;47.722;9.388;2024-03-23T02:50:19;8.80;99.90
8662;DHT22;29684;47.722;9.388;2024-03-23T02:53:03;8.90;99.90
8662;DHT22;29684;47.722;9.388;2024-03-23T02:55:48;9.00;99.90
8662;DHT22;29684;47.722;9.388;2024-03-23T02:58:32;9.10;99.90
8662;DHT22;29684;47.722;9.388;2024-03-23T03:01:16;9.10;99.90
8662;DHT22;29684;47.722;9.388;2024-03-23T03:04:00;9.20;99.90
8662;DHT22;29684;47.722;9.388;2024-03-23T03:06:47;9.20;99.90
8662;DHT22;29684;47.722;9.388;2024-03-23T03:09:31;9.40;99.90
8662;DHT22;29684;47.722;9.388;2024-03-23T03:12:17;9.60;99.90
8662;DHT22;29684;47.722;9.388;2024-03-23T03:15:02;10.10;99.90
8662;DHT22;29684;47.722;9.388;2024-03-23T03:17:46;9.20;99.90
8662;DHT22;29684;47.722;9.388;2024-03-23T03:20:31;9.20;99.90
8662;DHT22;29684;47.722;9.388;2024-03-23T03:23:16;9.20;99.90
8662;DHT22;29684;47.722;9.388;2024-03-23T03:26:02;9.20;99.90
8662;DHT22;29684;47.722;9.388;2024-03-23T03:28:46;9.20;99.90
8662;DHT22;29684;47.722;9.388;2024-03-23T03:31:32;9.20;99.90
8662;DHT22;29684;47.722;9.388;2024-03-23T03:34:17;9.30;99.90
8662;DHT22;29684;47.722;9.388;2024-03-23T03:37:01;9.40;99.90
8662;DHT22;29684;47.722;9.388;2024-03-23T03:39:45;9.20;99.90
8662;DHT22;29684;47.722;9.388;2024-03-23T03:42:29;10.30;99.90
8662;DHT22;29684;47.722;9.388;2024-03-23T03:45:13;9.30;99.90
8662;DHT22;29684;47.722;9.388;2024-03-23T03:47:57;9.40;99.90
8662;DHT22;29684;47.722;9.388;2024-03-23T03:50:41;9.20;99.90
8662;DHT22;29684;47.722;9.388;2024-03-23T03:53:25;8.90;99.90
8662;DHT22;29684;47.722;9.388;2024-03-23T03:56:10;8.60;99.90
8662;DHT22;29684;47.722;9.388;2024-03-23T03:58:54;9.00;99.90
8662;DHT22;29684;47.722;9.388;2024-03-23T04:01:38;8.30;99.90
8662;DHT22;29684;47.722;9.388;2024-03-23T04:04:22;8.30;99.90
8662;DHT22;29684;47.722;9.388;2024-03-23T04:07:06;8.20;99.90
8662;DHT22;29684;47.722;9.388;2024-03-23T04:09:50;9.20;99.90
8662;DHT22;29684;47.722;9.388;2024-03-23T04:12:35;9.20;99.90
8662;DHT22;29684;47.722;9.388;2024-03-23T04:15:19;8.20;99.90
8662;DHT22;29684;47.722;9.388;2024-03-23T04:18:03;9.20;99.90
8662;DHT22;29684;47.722;9.388;2024-03-23T04:20:49;8.20;99.90
8662;DHT22;29684;47.722;9.388;2024-03-23T04:23:33;9.80;99.90
8662;DHT22;29684;47.722;9.388;2024-03-23T04:26:17;8.40;99.90
8662;DHT22;29684;47.722;9.388;2024-03-23T04:29:01;8.10;99.90
8662;DHT22;29684;47.722;9.388;2024-03-23T04:31:45;8.10;99.90
8662;DHT22;29684;47.722;9.388;2024-03-23T04:34:29;9.90;99.90
8662;DHT22;29684;47.722;9.388;2024-03-23T04:37:14;8.40;99.90
8662;DHT22;29684;47.722;9.388;2024-03-23T04:39:58;8.30;99.90
8662;DHT22;29684;47.722;9.388;2024-03-23T04:42:42;8.70;99.90
8662;DHT22;29684;47.722;9.388;2024-03-23T04:45:26;8.30;99.90
8662;DHT22;29684;47.722;9.388;2024-03-23T04:48:10;8.30;99.90
8662;DHT22;29684;47.722;9.388;2024-03-23T04:50:55;8.20;99.90
8662;DHT22;29684;47.722;9.388;2024-03-23T04:53:41;8.20;99.90
8662;DHT22;29684;47.722;9.388;2024-03-23T04:56:26;8.10;99.90
8662;DHT22;29684;47.722;9.388;2024-03-23T04:59:10;8.10;99.90
8662;DHT22;29684;47.722;9.388;2024-03-23T05:01:55;8.50;99.90
8662;DHT22;29684;47.722;9.388;2024-03-23T05:04:40;8.50;99.90
8662;DHT22;29684;47.722;9.388;2024-03-23T05:07:24;8.20;99.90
8662;DHT22;29684;47.722;9.388;2024-03-23T05:10:09;8.20;99.90
8662;DHT22;29684;47.722;9.388;2024-03-23T05:12:57;8.20;99.90
8662;DHT22;29684;47.722;9.388;2024-03-23T05:15:41;9.20;99.90
8662;DHT22;29684;47.722;9.388;2024-03-23T05:18:25;8.30;99.90
8662;DHT22;29684;47.722;9.388;2024-03-23T05:21:12;8.40;99.90
8662;DHT22;29684;47.722;9.388;2024-03-23T05:23:56;8.60;99.90
8662;DHT22;29684;47.722;9.388;2024-03-23T05:26:40;8.60;99.90
8662;DHT22;29684;47.722;9.388;2024-03-23T05:29:25;8.80;99.90
8662;DHT22;29684;47.722;9.388;2024-03-23T05:32:09;8.80;99.90
8662;DHT22;29684;47.722;9.388;2024-03-23T05:34:54;9.00;99.90
8662;DHT22;29684;47.722;9.388;2024-03-23T05:37:40;10.20;99.90
8662;DHT22;29684;47.722;9.388;2024-03-23T05:40:26;9.10;99.90
8662;DHT22;29684;47.722;9.388;2024-03-23T05:43:11;9.30;99.90
8662;DHT22;29684;47.722;9.388;2024-03-23T05:45:56;9.40;99.90
8662;DHT22;29684;47.722;9.388;2024-03-23T05:48:40;10.30;99.90
8662;DHT22;29684;47.722;9.388;2024-03-23T05:51:24;10.10;99.90
8662;DHT22;29684;47.722;9.388;2024-03-23T05:54:08;10.00;99.90
8662;DHT22;29684;47.722;9.388;2024-03-23T05:56:55;10.50;99.90
8662;DHT22;29684;47.722;9.388;2024-03-23T05:59:39;10.20;99.90
8662;DHT22;29684;47.722;9.388;2024-03-23T06:02:24;10.30;99.90
8662;DHT22;29684;47.722;9.388;2024-03-23T06:05:08;10.20;99.90
8662;DHT22;29684;47.722;9.388;2024-03-23T06:07:52;11.30;99.90
8662;DHT22;29684;47.722;9.388;2024-03-23T06:10:36;9.90;99.90
8662;DHT22;29684;47.722;9.388;2024-03-23T06:13:20;10.80;99.90
8662;DHT22;29684;47.722;9.388;2024-03-23T06:16:08;9.50;99.90
8662;DHT22;29684;47.722;9.388;2024-03-23T06:18:52;9.20;99.90
8662;DHT22;29684;47.722;9.388;2024-03-23T06:21:36;9.10;99.90
8662;DHT22;29684;47.722;9.388;2024-03-23T06:24:21;9.00;99.90
8662;DHT22;29684;47.722;9.388;2024-03-23T06:27:06;9.00;99.90
8662;DHT22;29684;47.722;9.388;2024-03-23T06:29:51;8.90;99.90
8662;DHT22;29684;47.722;9.388;2024-03-23T06:32:35;9.10;99.90
8662;DHT22;29684;47.722;9.388;2024-03-23T06:35:19;9.00;99.90
8662;DHT22;29684;47.722;9.388;2024-03-23T06:38:04;8.80;99.90
8662;DHT22;29684;47.722;9.388;2024-03-23T06:40:48;10.20;99.90
8662;DHT22;29684;47.722;9.388;2024-03-23T06:43:35;8.80;99.90
8662;DHT22;29684;47.722;9.388;2024-03-23T06:46:19;10.90;99.90
8662;DHT22;29684;47.722;9.388;2024-03-23T06:49:03;9.20;99.90
8662;DHT22;29684;47.722;9.388;2024-03-23T06:51:47;9.50;99.90
8662;DHT22;29684;47.722;9.388;2024-03-23T06:54:31;9.70;99.90
8662;DHT22;29684;47.722;9.388;2024-03-23T06:57:15;9.80;99.90
8662;DHT22;29684;47.722;9.388;2024-03-23T06:59:59;9.80;99.90
8662;DHT22;29684;47.722;9.388;2024-03-23T07:02:44;9.70;99.90
8662;DHT22;29684;47.722;9.388;2024-03-23T07:05:28;9.70;99.90
8662;DHT22;29684;47.722;9.388;2024-03-23T07:08:12;9.80;99.90
8662;DHT22;29684;47.722;9.388;2024-03-23T07:10:56;9.80;99.90
8662;DHT22;29684;47.722;9.388;2024-03-23T07:13:41;10.80;99.90
8662;DHT22;29684;47.722;9.388;2024-03-23T07:16:27;9.90;99.90
8662;DHT22;29684;47.722;9.388;2024-03-23T07:19:11;9.80;99.90
8662;DHT22;29684;47.722;9.388;2024-03-23T07:21:55;9.90;99.90
8662;DHT22;29684;47.722;9.388;2024-03-23T07:24:40;9.80;99.90
8662;DHT22;29684;47.722;9.388;2024-03-23T07:27:24;11.00;99.90
8662;DHT22;29684;47.722;9.388;2024-03-23T07:30:10;9.90;99.90
8662;DHT22;29684;47.722;9.388;2024-03-23T07:32:54;11.00;99.90
8662;DHT22;29684;47.722;9.388;2024-03-23T07:35:38;10.30;99.90
8662;DHT22;29684;47.722;9.388;2024-03-23T07:38:23;10.80;99.90
8662;DHT22;29684;47.722;9.388;2024-03-23T07:41:09;10.10;99.90
8662;DHT22;29684;47.722;9.388;2024-03-23T07:43:57;10.10;99.90
8662;DHT22;29684;47.722;9.388;2024-03-23T07:46:41;10.10;99.90
8662;DHT22;29684;47.722;9.388;2024-03-23T07:49:25;10.20;99.90
8662;DHT22;29684;47.722;9.388;2024-03-23T07:52:09;10.20;99.90
8662;DHT22;29684;47.722;9.388;2024-03-23T07:54:53;10.20;99.90
8662;DHT22;29684;47.722;9.388;2024-03-23T07:57:37;10.20;99.90
8662;DHT22;29684;47.722;9.388;2024-03-23T08:00:21;10.20;99.90
8662;DHT22;29684;47.722;9.388;2024-03-23T08:03:06;10.30;99.90
8662;DHT22;29684;47.722;9.388;2024-03-23T08:05:50;10.40;99.90
8662;DHT22;29684;47.722;9.388;2024-03-23T08:08:34;10.40;99.90
8662;DHT22;29684;47.722;9.388;2024-03-23T08:11:19;10.40;99.90
8662;DHT22;29684;47.722;9.388;2024-03-23T08:14:03;10.50;99.90
8662;DHT22;29684;47.722;9.388;2024-03-23T08:16:48;10.50;99.90
8662;DHT22;29684;47.722;9.388;2024-03-23T08:19:33;10.50;99.90
8662;DHT22;29684;47.722;9.388;2024-03-23T08:22:17;10.40;99.90
8662;DHT22;29684;47.722;9.388;2024-03-23T08:25:01;10.40;99.90
8662;DHT22;29684;47.722;9.388;2024-03-23T08:27:45;10.30;99.90
8662;DHT22;29684;47.722;9.388;2024-03-23T08:30:29;10.00;99.90
8662;DHT22;29684;47.722;9.388;2024-03-23T08:33:14;9.60;99.90
8662;DHT22;29684;47.722;9.388;2024-03-23T08:36:00;9.20;99.90
8662;DHT22;29684;47.722;9.388;2024-03-23T08:38:44;8.80;99.90
8662;DHT22;29684;47.722;9.388;2024-03-23T08:41:29;8.50;99.90
8662;DHT22;29684;47.722;9.388;2024-03-23T08:44:13;8.40;99.90
8662;DHT22;29684;47.722;9.388;2024-03-23T08:46:57;8.20;99.90
8662;DHT22;29684;47.722;9.388;2024-03-23T08:49:41;8.20;99.90
8662;DHT22;29684;47.722;9.388;2024-03-23T08:52:26;8.20;99.90
8662;DHT22;29684;47.722;9.388;2024-03-23T08:55:12;8.10;99.90
8662;DHT22;29684;47.722;9.388;2024-03-23T08:57:58;9.30;99.90
8662;DHT22;29684;47.722;9.388;2024-03-23T09:00:42;9.60;99.90
8662;DHT22;29684;47.722;9.388;2024-03-23T09:03:27;9.30;99.90
8662;DHT22;29684;47.722;9.388;2024-03-23T09:06:13;7.90;99.90
8662;DHT22;29684;47.722;9.388;2024-03-23T09:08:57;7.90;99.90
8662;DHT22;29684;47.722;9.388;2024-03-23T09:11:42;8.00;99.90
8662;DHT22;29684;47.722;9.388;2024-03-23T09:14:26;8.00;99.90
8662;DHT22;29684;47.722;9.388;2024-03-23T09:17:10;8.20;99.90
8662;DHT22;29684;47.722;9.388;2024-03-23T09:19:54;8.10;99.90
8662;DHT22;29684;47.722;9.388;2024-03-23T09:22:38;8.10;99.90
8662;DHT22;29684;47.722;9.388;2024-03-23T09:25:23;8.20;99.90
8662;DHT22;29684;47.722;9.388;2024-03-23T09:28:07;8.20;99.90
8662;DHT22;29684;47.722;9.388;2024-03-23T09:30:52;8.30;99.90
8662;DHT22;29684;47.722;9.388;2024-03-23T09:33:36;8.40;99.90
8662;DHT22;29684;47.722;9.388;2024-03-23T09:36:20;8.50;99.90
8662;DHT22;29684;47.722;9.388;2024-03-23T09:39:06;10.50;99.90
8662;DHT22;29684;47.722;9.388;2024-03-23T09:41:50;10.20;99.90
8662;DHT22;29684;47.722;9.388;2024-03-23T09:44:35;8.50;99.90
8662;DHT22;29684;47.722;9.388;2024-03-23T09:47:20;8.50;99.90
8662;DHT22;29684;47.722;9.388;2024-03-23T09:50:05;8.50;99.90
8662;DHT22;29684;47.722;9.388;2024-03-23T09:52:50;8.40;99.90
8662;DHT22;29684;47.722;9.388;2024-03-23T09:55:34;8.40;99.90
8662;DHT22;29684;47.722;9.388;2024-03-23T09:58:19;8.40;99.90
8662;DHT22;29684;47.722;9.388;2024-03-23T10:01:04;8.40;99.90
8662;DHT22;29684;47.722;9.388;2024-03-23T10:03:48;8.50;99.90
8662;DHT22;29684;47.722;9.388;2024-03-23T10:06:33;8.40;99.90
8662;DHT22;29684;47.722;9.388;2024-03-23T10:09:18;8.50;99.90
8662;DHT22;29684;47.722;9.388;2024-03-23T10:14:54;8.50;99.90
8662;DHT22;29684;47.722;9.388;2024-03-23T10:17:38;8.60;99.90
8662;DHT22;29684;47.722;9.388;2024-03-23T10:20:23;8.90;99.90
8662;DHT22;29684;47.722;9.388;2024-03-23T10:23:18;8.60;99.90
8662;DHT22;29684;47.722;9.388;2024-03-23T10:26:23;8.70;99.90
8662;DHT22;29684;47.722;9.388;2024-03-23T10:29:09;9.00;99.90
8662;DHT22;29684;47.722;9.388;2024-03-23T10:32:09;10.90;99.90
8662;DHT22;29684;47.722;9.388;2024-03-23T10:34:54;8.90;99.90
8662;DHT22;29684;47.722;9.388;2024-03-23T10:37:38;8.90;99.90
8662;DHT22;29684;47.722;9.388;2024-03-23T10:40:23;9.00;99.90
8662;DHT22;29684;47.722;9.388;2024-03-23T10:43:08;9.20;99.90
8662;DHT22;29684;47.722;9.388;2024-03-23T10:45:53;9.40;99.90
8662;DHT22;29684;47.722;9.388;2024-03-23T10:48:37;9.40;99.90
8662;DHT22;29684;47.722;9.388;2024-03-23T10:51:21;9.30;99.90
8662;DHT22;29684;47.722;9.388;2024-03-23T10:54:06;9.30;99.90
8662;DHT22;29684;47.722;9.388;2024-03-23T10:57:05;9.40;99.90
8662;DHT22;29684;47.722;9.388;2024-03-23T10:59:51;9.40;99.90
8662;DHT22;29684;47.722;9.388;2024-03-23T11:02:36;9.50;99.90
8662;DHT22;29684;47.722;9.388;2024-03-23T11:08:10;9.70;99.90
8662;DHT22;29684;47.722;9.388;2024-03-23T11:11:22;9.80;99.90
8662;DHT22;29684;47.722;9.388;2024-03-23T11:14:22;9.70;99.90
8662;DHT22;29684;47.722;9.388;2024-03-23T11:17:11;9.70;99.90
8662;DHT22;29684;47.722;9.388;2024-03-23T11:19:59;9.70;99.90
8662;DHT22;29684;47.722;9.388;2024-03-23T11:22:45;9.80;99.90
8662;DHT22;29684;47.722;9.388;2024-03-23T11:25:33;10.00;99.90
8662;DHT22;29684;47.722;9.388;2024-03-23T11:28:17;11.90;99.90
8662;DHT22;29684;47.722;9.388;2024-03-23T11:31:09;10.10;99.90
8662;DHT22;29684;47.722;9.388;2024-03-23T11:34:04;10.30;99.90
8662;DHT22;29684;47.722;9.388;2024-03-23T11:36:49;10.40;99.90
8662;DHT22;29684;47.722;9.388;2024-03-23T11:39:36;10.20;99.90
8662;DHT22;29684;47.722;9.388;2024-03-23T11:42:20;10.20;99.90
8662;DHT22;29684;47.722;9.388;2024-03-23T11:45:09;10.40;99.90
8662;DHT22;29684;47.722;9.388;2024-03-23T11:48:10;10.70;99.90
8662;DHT22;29684;47.722;9.388;2024-03-23T11:50:57;10.60;99.90
8662;DHT22;29684;47.722;9.388;2024-03-23T11:53:44;10.50;99.90
8662;DHT22;29684;47.722;9.388;2024-03-23T11:56:28;10.10;99.90
8662;DHT22;29684;47.722;9.388;2024-03-23T11:59:30;10.20;99.90
8662;DHT22;29684;47.722;9.388;2024-03-23T12:02:18;10.30;99.90
8662;DHT22;29684;47.722;9.388;2024-03-23T12:05:14;10.70;99.90
8662;DHT22;29684;47.722;9.388;2024-03-23T12:08:21;11.20;99.90
8662;DHT22;29684;47.722;9.388;2024-03-23T12:11:13;11.10;99.90
8662;DHT22;29684;47.722;9.388;2024-03-23T12:13:59;11.20;99.90
8662;DHT22;29684;47.722;9.388;2024-03-23T12:16:47;11.30;99.90
8662;DHT22;29684;47.722;9.388;2024-03-23T12:19:31;11.50;99.90
8662;DHT22;29684;47.722;9.388;2024-03-23T12:22:15;11.60;99.90
8662;DHT22;29684;47.722;9.388;2024-03-23T12:24:59;11.20;99.90
8662;DHT22;29684;47.722;9.388;2024-03-23T12:27:43;11.20;99.90
8662;DHT22;29684;47.722;9.388;2024-03-23T12:30:27;10.90;99.90
8662;DHT22;29684;47.722;9.388;2024-03-23T12:33:12;11.30;99.90
8662;DHT22;29684;47.722;9.388;2024-03-23T12:35:56;11.20;99.90
8662;DHT22;29684;47.722;9.388;2024-03-23T12:38:40;11.50;99.90
8662;DHT22;29684;47.722;9.388;2024-03-23T12:41:24;11.50;99.90
8662;DHT22;29684;47.722;9.388;2024-03-23T12:44:09;11.70;99.90
8662;DHT22;29684;47.722;9.388;2024-03-23T12:46:55;12.00;99.90
8662;DHT22;29684;47.722;9.388;2024-03-23T12:49:39;12.00;99.90
8662;DHT22;29684;47.722;9.388;2024-03-23T12:52:23;11.50;99.90
8662;DHT22;29684;47.722;9.388;2024-03-23T12:55:12;11.70;99.90
8662;DHT22;29684;47.722;9.388;2024-03-23T12:57:56;11.40;99.90
8662;DHT22;29684;47.722;9.388;2024-03-23T13:00:40;11.20;99.90
8662;DHT22;29684;47.722;9.388;2024-03-23T13:03:24;10.80;99.90
8662;DHT22;29684;47.722;9.388;2024-03-23T13:06:09;10.60;99.90
8662;DHT22;29684;47.722;9.388;2024-03-23T13:08:52;11.20;99.90
8662;DHT22;29684;47.722;9.388;2024-03-23T13:11:39;10.80;99.90
8662;DHT22;29684;47.722;9.388;2024-03-23T13:14:23;9.80;99.90
8662;DHT22;29684;47.722;9.388;2024-03-23T13:17:07;10.00;99.90
8662;DHT22;29684;47.722;9.388;2024-03-23T13:19:53;10.20;99.90
8662;DHT22;29684;47.722;9.388;2024-03-23T13:22:37;10.20;99.90
8662;DHT22;29684;47.722;9.388;2024-03-23T13:25:21;10.60;99.90
8662;DHT22;29684;47.722;9.388;2024-03-23T13:28:06;11.90;99.90
8662;DHT22;29684;47.722;9.388;2024-03-23T13:30:54;10.20;99.90
8662;DHT22;29684;47.722;9.388;2024-03-23T13:33:39;10.40;99.90
8662;DHT22;29684;47.722;9.388;2024-03-23T13:36:23;10.50;99.90
8662;DHT22;29684;47.722;9.388;2024-03-23T13:39:08;11.80;99.90
8662;DHT22;29684;47.722;9.388;2024-03-23T13:41:55;11.40;99.90
8662;DHT22;29684;47.722;9.388;2024-03-23T13:44:40;11.50;99.90
8662;DHT22;29684;47.722;9.388;2024-03-23T13:47:24;11.40;99.90
8662;DHT22;29684;47.722;9.388;2024-03-23T13:50:08;11.10;99.90
8662;DHT22;29684;47.722;9.388;2024-03-23T13:52:53;10.20;99.90
8662;DHT22;29684;47.722;9.388;2024-03-23T13:55:37;10.70;99.90
8662;DHT22;29684;47.722;9.388;2024-03-23T13:58:21;11.10;99.90
8662;DHT22;29684;47.722;9.388;2024-03-23T14:01:06;11.30;99.90
8662;DHT22;29684;47.722;9.388;2024-03-23T14:03:51;11.70;99.90
8662;DHT22;29684;47.722;9.388;2024-03-23T14:06:35;12.40;99.90
8662;DHT22;29684;47.722;9.388;2024-03-23T14:09:19;11.80;99.90
8662;DHT22;29684;47.722;9.388;2024-03-23T14:12:07;12.00;99.90
8662;DHT22;29684;47.722;9.388;2024-03-23T14:14:52;12.60;99.90
8662;DHT22;29684;47.722;9.388;2024-03-23T14:17:37;11.90;99.90
8662;DHT22;29684;47.722;9.388;2024-03-23T14:20:23;11.60;99.90
8662;DHT22;29684;47.722;9.388;2024-03-23T14:23:10;11.80;99.90
8662;DHT22;29684;47.722;9.388;2024-03-23T14:25:54;11.80;99.90
8662;DHT22;29684;47.722;9.388;2024-03-23T14:28:38;12.30;99.90
8662;DHT22;29684;47.722;9.388;2024-03-23T14:31:23;11.00;99.90
8662;DHT22;29684;47.722;9.388;2024-03-23T14:34:09;11.20;99.90
8662;DHT22;29684;47.722;9.388;2024-03-23T14:36:54;9.90;99.90
8662;DHT22;29684;47.722;9.388;2024-03-23T14:39:38;10.60;99.90
8662;DHT22;29684;47.722;9.388;2024-03-23T14:42:25;9.90;99.90
8662;DHT22;29684;47.722;9.388;2024-03-23T14:45:10;10.30;99.90
8662;DHT22;29684;47.722;9.388;2024-03-23T14:47:55;11.20;99.90
8662;DHT22;29684;47.722;9.388;2024-03-23T14:50:42;12.80;99.90
8662;DHT22;29684;47.722;9.388;2024-03-23T14:53:29;12.50;99.90
8662;DHT22;29684;47.722;9.388;2024-03-23T14:56:14;12.90;99.90
8662;DHT22;29684;47.722;9.388;2024-03-23T14:59:00;12.80;99.90
8662;DHT22;29684;47.722;9.388;2024-03-23T15:01:44;12.70;99.90
8662;DHT22;29684;47.722;9.388;2024-03-23T15:04:29;12.50;99.90
8662;DHT22;29684;47.722;9.388;2024-03-23T15:07:13;12.00;99.90
8662;DHT22;29684;47.722;9.388;2024-03-23T15:09:57;12.30;99.90
8662;DHT22;29684;47.722;9.388;2024-03-23T15:12:42;12.60;99.90
8662;DHT22;29684;47.722;9.388;2024-03-23T15:15:27;12.60;99.90
8662;DHT22;29684;47.722;9.388;2024-03-23T15:18:12;12.60;99.90
8662;DHT22;29684;47.722;9.388;2024-03-23T15:20:58;12.70;99.90
8662;DHT22;29684;47.722;9.388;2024-03-23T15:23:46;12.60;99.90
8662;DHT22;29684;47.722;9.388;2024-03-23T15:26:30;12.70;99.90
8662;DHT22;29684;47.722;9.388;2024-03-23T15:29:14;12.20;99.90
8662;DHT22;29684;47.722;9.388;2024-03-23T15:32:01;12.30;99.90
8662;DHT22;29684;47.722;9.388;2024-03-23T15:34:45;11.40;99.90
8662;DHT22;29684;47.722;9.388;2024-03-23T15:37:31;12.00;99.90
8662;DHT22;29684;47.722;9.388;2024-03-23T15:40:16;10.90;99.90
8662;DHT22;29684;47.722;9.388;2024-03-23T15:43:00;11.50;99.90
8662;DHT22;29684;47.722;9.388;2024-03-23T15:45:53;12.10;99.80
8662;DHT22;29684;47.722;9.388;2024-03-23T15:48:40;12.50;99.90
8662;DHT22;29684;47.722;9.388;2024-03-23T15:51:31;11.90;99.90
8662;DHT22;29684;47.722;9.388;2024-03-23T15:54:17;11.80;99.90
8662;DHT22;29684;47.722;9.388;2024-03-23T15:57:01;12.30;99.90
8662;DHT22;29684;47.722;9.388;2024-03-23T15:59:45;11.90;99.90
8662;DHT22;29684;47.722;9.388;2024-03-23T16:02:29;11.80;99.90
8662;DHT22;29684;47.722;9.388;2024-03-23T16:05:14;11.20;99.90
8662;DHT22;29684;47.722;9.388;2024-03-23T16:07:59;11.30;99.90
8662;DHT22;29684;47.722;9.388;2024-03-23T16:10:43;10.80;99.90
8662;DHT22;29684;47.722;9.388;2024-03-23T16:13:27;11.50;99.90
8662;DHT22;29684;47.722;9.388;2024-03-23T16:16:12;12.10;99.80
8662;DHT22;29684;47.722;9.388;2024-03-23T16:18:56;11.90;99.30
8662;DHT22;29684;47.722;9.388;2024-03-23T16:21:41;11.90;99.30
8662;DHT22;29684;47.722;9.388;2024-03-23T16:24:25;11.10;99.80
8662;DHT22;29684;47.722;9.388;2024-03-23T16:27:09;12.30;99.90
8662;DHT22;29684;47.722;9.388;2024-03-23T16:29:53;9.90;99.90
8662;DHT22;29684;47.722;9.388;2024-03-23T16:32:37;9.60;99.90
8662;DHT22;29684;47.722;9.388;2024-03-23T16:35:22;10.50;98.90
8662;DHT22;29684;47.722;9.388;2024-03-23T16:38:07;9.20;98.90
8662;DHT22;29684;47.722;9.388;2024-03-23T16:41:01;9.20;99.00
8662;DHT22;29684;47.722;9.388;2024-03-23T16:43:46;9.00;98.80
8662;DHT22;29684;47.722;9.388;2024-03-23T16:46:30;9.00;99.20
8662;DHT22;29684;47.722;9.388;2024-03-23T16:49:15;8.90;99.00
8662;DHT22;29684;47.722;9.388;2024-03-23T16:51:59;8.80;99.30
8662;DHT22;29684;47.722;9.388;2024-03-23T16:54:43;8.70;99.70
8662;DHT22;29684;47.722;9.388;2024-03-23T16:57:27;8.60;99.90
8662;DHT22;29684;47.722;9.388;2024-03-23T17:00:14;8.40;99.90
8662;DHT22;29684;47.722;9.388;2024-03-23T17:02:59;8.20;99.90
8662;DHT22;29684;47.722;9.388;2024-03-23T17:05:43;8.20;99.90
8662;DHT22;29684;47.722;9.388;2024-03-23T17:08:27;9.90;99.90
8662;DHT22;29684;47.722;9.388;2024-03-23T17:11:11;8.00;99.90
8662;DHT22;29684;47.722;9.388;2024-03-23T17:13:55;9.60;99.90
8662;DHT22;29684;47.722;9.388;2024-03-23T17:16:41;7.80;99.90
8662;DHT22;29684;47.722;9.388;2024-03-23T17:19:25;7.80;99.90
8662;DHT22;29684;47.722;9.388;2024-03-23T17:22:12;7.80;99.90
8662;DHT22;29684;47.722;9.388;2024-03-23T17:24:56;7.70;99.90
8662;DHT22;29684;47.722;9.388;2024-03-23T17:27:40;8.10;99.90
8662;DHT22;29684;47.722;9.388;2024-03-23T17:30:24;7.70;99.90
8662;DHT22;29684;47.722;9.388;2024-03-23T17:33:10;7.60;99.90
8662;DHT22;29684;47.722;9.388;2024-03-23T17:35:55;7.60;99.90
8662;DHT22;29684;47.722;9.388;2024-03-23T17:38:39;7.50;99.90
8662;DHT22;29684;47.722;9.388;2024-03-23T17:41:23;7.50;99.90
8662;DHT22;29684;47.722;9.388;2024-03-23T17:44:10;7.40;99.90
8662;DHT22;29684;47.722;9.388;2024-03-23T17:46:54;7.40;99.90
8662;DHT22;29684;47.722;9.388;2024-03-23T17:49:38;7.40;99.90
8662;DHT22;29684;47.722;9.388;2024-03-23T17:52:22;7.30;99.90
8662;DHT22;29684;47.722;9.388;2024-03-23T17:55:06;7.30;99.90
8662;DHT22;29684;47.722;9.388;2024-03-23T17:57:51;7.30;99.90
8662;DHT22;29684;47.722;9.388;2024-03-23T18:00:35;7.20;99.90
8662;DHT22;29684;47.722;9.388;2024-03-23T18:03:19;7.10;99.90
8662;DHT22;29684;47.722;9.388;2024-03-23T18:06:03;7.10;99.90
8662;DHT22;29684;47.722;9.388;2024-03-23T18:08:48;7.10;99.90
8662;DHT22;29684;47.722;9.388;2024-03-23T18:11:32;7.00;99.90
8662;DHT22;29684;47.722;9.388;2024-03-23T18:14:17;7.00;99.90
8662;DHT22;29684;47.722;9.388;2024-03-23T18:17:02;7.10;99.90
8662;DHT22;29684;47.722;9.388;2024-03-23T18:19:45;7.10;99.90
8662;DHT22;29684;47.722;9.388;2024-03-23T18:22:30;7.10;99.90
8662;DHT22;29684;47.722;9.388;2024-03-23T18:25:14;7.00;99.90
8662;DHT22;29684;47.722;9.388;2024-03-23T18:27:58;6.80;99.90
8662;DHT22;29684;47.722;9.388;2024-03-23T18:30:43;6.60;99.90
8662;DHT22;29684;47.722;9.388;2024-03-23T18:33:32;6.50;99.90
8662;DHT22;29684;47.722;9.388;2024-03-23T18:36:17;6.20;99.90
8662;DHT22;29684;47.722;9.388;2024-03-23T18:39:01;5.70;99.90
8662;DHT22;29684;47.722;9.388;2024-03-23T18:41:49;5.10;99.90
8662;DHT22;29684;47.722;9.388;2024-03-23T18:44:33;4.60;99.90
8662;DHT22;29684;47.722;9.388;2024-03-23T18:47:17;4.40;99.90
8662;DHT22;29684;47.722;9.388;2024-03-23T18:50:01;3.70;99.90